HE30 weather

Kom Awshim Airport
Faiyum Governorate, Egypt

Public forecast

Using degrees Celsius for public forecast. Weather courtesy of forecast.io.

Closest aviation weather report (METAR) to Kom Awshim Airport

Closest report is Cairo International Airport, 43.2 nm (80.1 km) NE. Retrieved 2020/01/23 01:00 UTC (52 minutes ago):

HECA 230100Z 19004KT 9999 FEW025 SCT030 09/03 Q1023

Closest aviation forecast (TAF) to Kom Awshim Airport

Closest forecast is Cairo International Airport, 43.2 nm (80.1 km) NE. Retrieved 2020-01-23 00:40 UTC (1 hour ago):

TAF HECA 222300Z 2300/2406 18007KT CAVOK TEMPO 2301/2308 VRB03KT 4000 BR NSC BECMG 2308/2310 27010KT